createdAt,value
2019-05-14T00:02:24.158Z,1.50
2019-05-14T00:35:35.840Z,1.60
2019-05-14T00:38:08.085Z,1.80
2019-05-14T00:44:06.129Z,1.77
2019-05-14T00:47:14.325Z,1.90
2019-05-14T00:50:04.092Z,1.67
2019-05-14T00:52:57.724Z,1.67
2019-05-14T00:55:47.109Z,1.80
2019-05-14T00:58:36.710Z,1.37
2019-05-14T01:02:03.812Z,1.80
2019-05-14T01:04:53.220Z,1.67
2019-05-14T01:07:58.607Z,1.97
2019-05-14T01:10:37.812Z,1.97
2019-05-14T01:13:27.118Z,1.90
2019-05-14T01:16:16.702Z,1.80
2019-05-14T01:19:07.319Z,1.70
2019-05-14T01:21:56.692Z,1.83
2019-05-14T01:24:46.378Z,1.80
2019-05-14T01:27:35.712Z,1.73
2019-05-14T01:30:55.783Z,2.03
2019-05-14T01:33:27.293Z,2.10
2019-05-14T01:36:09.152Z,2.07
2019-05-14T01:38:51.424Z,2.33
2019-05-14T01:41:32.090Z,1.97
2019-05-14T01:44:04.380Z,2.00
2019-05-14T01:46:54.143Z,1.80
2019-05-14T01:49:37.141Z,1.77
2019-05-14T01:52:17.444Z,1.83
2019-05-14T01:55:07.131Z,2.03
2019-05-14T01:57:56.739Z,1.83
2019-05-14T02:00:27.411Z,2.10
2019-05-14T02:03:16.730Z,2.60
2019-05-14T02:05:49.227Z,2.07
2019-05-14T02:08:38.654Z,2.43
2019-05-14T02:14:58.299Z,2.10
2019-05-14T02:17:47.694Z,1.97
2019-05-14T02:20:37.312Z,1.97
2019-05-14T02:23:26.639Z,2.10
2019-05-14T02:26:16.314Z,2.23
2019-05-14T02:32:14.327Z,2.17
2019-05-14T02:35:03.796Z,2.20
2019-05-14T02:38:13.693Z,2.27
2019-05-14T02:41:03.173Z,2.30
2019-05-14T02:43:59.170Z,1.90
2019-05-14T02:47:09.816Z,2.20
2019-05-14T02:49:51.535Z,2.03
2019-05-14T02:55:19.120Z,1.90
2019-05-14T02:58:00.137Z,2.37
2019-05-14T03:00:41.671Z,2.20
2019-05-14T03:03:23.771Z,2.30
2019-05-14T03:08:52.296Z,2.30
2019-05-14T03:11:34.529Z,2.07
2019-05-14T03:14:19.316Z,2.50
2019-05-14T03:16:59.824Z,2.20
2019-05-14T03:19:41.198Z,2.33
2019-05-14T03:22:46.779Z,1.90
2019-05-14T03:28:39.835Z,2.17
2019-05-14T03:31:33.055Z,2.30
2019-05-14T03:34:43.339Z,2.13
2019-05-14T03:37:31.633Z,2.50
2019-05-14T03:40:21.223Z,2.50
2019-05-14T03:43:11.604Z,2.30
2019-05-14T03:46:02.119Z,2.23
2019-05-14T03:48:43.385Z,2.40
2019-05-14T03:51:24.985Z,2.60
2019-05-14T03:54:11.340Z,2.93
2019-05-14T03:56:50.323Z,2.77
2019-05-14T03:59:32.166Z,2.80
2019-05-14T04:02:13.933Z,2.63
2019-05-14T04:04:53.958Z,3.20
2019-05-14T04:08:02.223Z,2.27
2019-05-14T04:11:11.940Z,2.73
2019-05-14T04:14:32.012Z,2.87
2019-05-14T04:17:42.446Z,3.10
2019-05-14T04:20:53.305Z,2.70
2019-05-14T04:24:03.654Z,2.73
2019-05-14T04:27:13.742Z,2.83
2019-05-14T04:30:09.406Z,2.87
2019-05-14T04:35:48.991Z,2.37
2019-05-14T04:38:40.943Z,2.90
2019-05-14T04:41:32.290Z,2.57
2019-05-14T04:44:22.443Z,2.80
2019-05-14T04:47:30.154Z,2.70
2019-05-14T04:49:58.963Z,3.43
2019-05-14T04:52:40.613Z,2.83
2019-05-14T04:55:34.508Z,2.77
2019-05-14T04:58:24.380Z,2.53
2019-05-14T05:04:10.649Z,2.90
2019-05-14T05:07:21.667Z,2.90
2019-05-14T05:10:30.838Z,2.70
2019-05-14T05:13:20.491Z,3.00
2019-05-14T05:16:10.490Z,3.07
2019-05-14T05:19:25.408Z,3.00
2019-05-14T05:22:19.609Z,2.40
2019-05-14T05:24:50.119Z,2.63
2019-05-14T05:27:39.681Z,2.60
2019-05-14T05:30:31.946Z,2.70
2019-05-14T05:33:23.896Z,3.00
2019-05-14T05:35:54.325Z,2.63
2019-05-14T05:38:24.838Z,2.60
2019-05-14T05:41:14.564Z,2.80
2019-05-14T05:43:44.960Z,3.13
2019-05-14T05:46:15.295Z,3.00
2019-05-14T05:49:08.103Z,2.33
2019-05-14T05:51:39.237Z,2.87
2019-05-14T05:54:29.917Z,2.70
2019-05-14T05:57:19.251Z,2.27
2019-05-14T05:59:52.960Z,2.87
2019-05-14T06:02:23.399Z,2.83
2019-05-14T06:04:54.180Z,2.77
2019-05-14T06:07:36.329Z,2.83
2019-05-14T06:12:58.560Z,1.97
2019-05-14T06:15:43.822Z,2.50
2019-05-14T06:18:22.102Z,1.97
2019-05-14T06:20:58.343Z,2.30
2019-05-14T06:23:28.849Z,2.57
2019-05-14T06:26:19.101Z,2.30
2019-05-14T06:29:09.014Z,2.60
2019-05-14T06:31:39.473Z,2.80
2019-05-14T06:34:31.124Z,2.40
2019-05-14T06:37:20.728Z,2.63
2019-05-14T06:40:09.967Z,2.40
2019-05-14T06:42:40.324Z,2.47
2019-05-14T06:45:22.234Z,2.50
2019-05-14T06:47:43.913Z,2.27
2019-05-14T06:50:14.394Z,2.50
2019-05-14T06:53:03.717Z,2.20
2019-05-14T06:55:53.055Z,2.43
2019-05-14T06:58:29.550Z,2.47
2019-05-14T07:00:59.300Z,2.40
2019-05-14T07:03:51.291Z,2.30
2019-05-14T07:06:21.601Z,2.23
2019-05-14T07:08:52.822Z,1.83
2019-05-14T07:11:23.241Z,2.10
2019-05-14T07:13:58.110Z,2.67
2019-05-14T07:16:28.897Z,2.10
2019-05-14T07:18:59.392Z,2.00
2019-05-14T07:21:32.771Z,1.97
2019-05-14T07:24:03.092Z,2.57
2019-05-14T07:26:38.843Z,2.10
2019-05-14T07:29:29.317Z,2.43
2019-05-14T07:32:00.263Z,2.27
2019-05-14T07:34:49.558Z,2.30
2019-05-14T07:37:22.013Z,2.40
2019-05-14T07:39:52.661Z,2.20
2019-05-14T07:42:28.719Z,2.50
2019-05-14T07:44:58.929Z,2.60
2019-05-14T07:47:49.360Z,2.27
2019-05-14T07:50:20.617Z,2.23
2019-05-14T07:52:51.257Z,2.27
2019-05-14T07:55:21.563Z,2.50
2019-05-14T07:58:11.215Z,2.33
2019-05-14T08:01:00.562Z,2.37
2019-05-14T08:03:50.186Z,2.60
2019-05-14T08:06:39.591Z,2.27
2019-05-14T08:09:29.265Z,2.13
2019-05-14T08:11:59.553Z,2.27
2019-05-14T08:14:46.402Z,2.20
2019-05-14T08:20:29.839Z,2.20
2019-05-14T08:23:19.154Z,2.10
2019-05-14T08:26:09.133Z,2.30
2019-05-14T08:28:58.696Z,1.87
2019-05-14T08:31:29.374Z,2.07
2019-05-14T08:34:04.896Z,1.87
2019-05-14T08:36:54.425Z,2.20
2019-05-14T08:39:43.738Z,1.90
2019-05-14T08:42:34.318Z,1.63
2019-05-14T08:45:24.435Z,2.03
2019-05-14T08:48:14.062Z,2.17
2019-05-14T08:50:47.969Z,1.93
2019-05-14T08:53:18.725Z,2.17
2019-05-14T08:56:12.324Z,2.30
2019-05-14T08:58:42.809Z,1.80
2019-05-14T09:01:13.076Z,1.83
2019-05-14T09:04:05.211Z,1.93
2019-05-14T09:06:48.905Z,1.93
2019-05-14T09:09:48.612Z,2.37
2019-05-14T09:12:18.784Z,2.80
2019-05-14T09:18:04.591Z,2.10
2019-05-14T09:20:38.325Z,2.10
2019-05-14T09:23:28.916Z,1.97
2019-05-14T09:25:59.296Z,2.33
2019-05-14T09:28:29.755Z,2.00
2019-05-14T09:31:24.308Z,2.33
2019-05-14T09:37:03.159Z,2.17
2019-05-14T09:39:51.447Z,1.93
2019-05-14T09:42:33.160Z,2.17
2019-05-14T09:45:14.613Z,2.10
2019-05-14T09:48:01.183Z,2.20
2019-05-14T09:50:38.649Z,2.27
2019-05-14T09:53:20.177Z,2.10
2019-05-14T09:56:03.732Z,2.30
2019-05-14T09:58:53.105Z,2.50
2019-05-14T10:01:42.505Z,2.00
2019-05-14T10:04:27.081Z,2.17
2019-05-14T10:07:04.448Z,1.60
2019-05-14T10:12:54.137Z,1.60
2019-05-14T10:15:40.240Z,2.07
2019-05-14T10:18:29.667Z,2.17
2019-05-14T10:21:19.282Z,1.80
2019-05-14T10:24:23.919Z,1.90
2019-05-14T10:27:00.122Z,1.80
2019-05-14T10:29:49.484Z,1.80
2019-05-14T10:35:03.499Z,2.00
2019-05-14T10:37:54.415Z,1.90
2019-05-14T10:43:33.470Z,1.97
2019-05-14T10:46:40.149Z,2.13
2019-05-14T10:49:23.467Z,2.10
2019-05-14T10:52:08.519Z,2.57
2019-05-14T10:54:53.855Z,2.17
2019-05-14T10:57:14.021Z,1.73
2019-05-14T10:59:44.356Z,1.80
2019-05-14T11:02:14.997Z,1.80
2019-05-14T11:04:45.443Z,1.97
2019-05-14T11:07:53.653Z,1.67
2019-05-14T11:10:44.418Z,1.90
2019-05-14T11:13:43.158Z,2.20
2019-05-14T11:16:24.859Z,1.90
2019-05-14T11:19:09.349Z,1.90
2019-05-14T11:21:51.920Z,1.90
2019-05-14T11:24:33.242Z,2.03
2019-05-14T11:27:18.633Z,1.60
2019-05-14T11:30:09.042Z,1.80
2019-05-14T11:32:39.690Z,1.97
2019-05-14T11:35:31.115Z,1.70
2019-05-14T11:38:29.857Z,2.10
2019-05-14T11:41:11.532Z,1.80
2019-05-14T11:44:04.572Z,2.80
2019-05-14T11:46:58.105Z,1.83
2019-05-14T11:49:26.470Z,1.83
2019-05-14T11:52:07.298Z,1.80
2019-05-14T11:54:30.253Z,1.90
2019-05-14T11:57:00.576Z,2.20
2019-05-14T11:59:30.904Z,2.20
2019-05-14T12:02:01.275Z,2.10
2019-05-14T12:04:53.777Z,1.70
2019-05-14T12:07:27.938Z,1.73
2019-05-14T12:10:18.802Z,1.97
2019-05-14T12:12:55.389Z,1.83
2019-05-14T12:15:28.066Z,2.10
2019-05-14T12:18:18.620Z,2.00
2019-05-14T12:20:52.199Z,1.97
2019-05-14T12:23:41.880Z,1.83
2019-05-14T12:26:13.634Z,1.70
2019-05-14T12:29:05.870Z,1.90
2019-05-14T12:32:18.915Z,1.40
2019-05-14T12:34:53.190Z,1.60
2019-05-14T12:37:51.057Z,1.90
2019-05-14T12:40:29.825Z,1.30
2019-05-14T12:43:00.267Z,1.47
2019-05-14T12:45:49.632Z,1.50
2019-05-14T12:48:33.145Z,1.40
2019-05-14T12:50:53.268Z,2.00
2019-05-14T12:53:24.224Z,1.43
2019-05-14T12:55:56.062Z,1.70
2019-05-14T12:58:28.560Z,1.60
2019-05-14T13:01:20.412Z,1.80
2019-05-14T13:04:31.148Z,1.70
2019-05-14T13:07:01.488Z,1.60
2019-05-14T13:09:43.922Z,1.60
2019-05-14T13:12:53.690Z,1.20
2019-05-14T13:19:14.688Z,1.40
2019-05-14T13:22:38.394Z,1.23
2019-05-14T13:25:14.266Z,1.40
2019-05-14T13:27:44.570Z,1.30
2019-05-14T13:30:15.306Z,1.30
2019-05-14T13:32:59.100Z,1.63
2019-05-14T13:38:25.992Z,1.60
2019-05-14T13:41:11.727Z,1.20
2019-05-14T13:43:58.524Z,1.40
2019-05-14T13:49:22.842Z,1.40
2019-05-14T13:51:53.373Z,1.40
2019-05-14T13:54:42.736Z,1.73
2019-05-14T13:57:13.106Z,1.10
2019-05-14T13:59:44.723Z,1.20
2019-05-14T14:02:18.994Z,1.10
2019-05-14T14:05:13.431Z,1.20
2019-05-14T14:11:02.791Z,1.20
2019-05-14T14:13:49.962Z,1.10
2019-05-14T14:16:20.441Z,1.23
2019-05-14T14:19:12.195Z,1.00
2019-05-14T14:22:06.326Z,1.23
2019-05-14T14:31:34.321Z,1.20
2019-05-14T14:34:29.113Z,1.20
2019-05-14T14:36:59.681Z,1.10
2019-05-14T14:39:49.590Z,1.00
2019-05-14T14:42:40.182Z,1.10
2019-05-14T14:45:46.272Z,1.20
2019-05-14T14:48:05.783Z,1.20
2019-05-14T14:50:49.985Z,1.20
2019-05-14T14:54:09.881Z,1.27
2019-05-14T14:56:54.414Z,1.30
2019-05-14T14:59:30.532Z,0.90
2019-05-14T15:02:50.000Z,1.10
2019-05-14T15:05:43.746Z,1.00
2019-05-14T15:08:29.047Z,1.00
2019-05-14T15:11:05.107Z,1.03
2019-05-14T15:13:35.451Z,2.00
2019-05-14T15:22:49.459Z,1.20
2019-05-14T15:26:11.938Z,1.03
2019-05-14T15:29:02.071Z,1.03
2019-05-14T15:31:33.440Z,1.40
2019-05-14T15:34:22.812Z,1.17
2019-05-14T15:37:13.732Z,1.00
2019-05-14T15:40:04.643Z,1.30
2019-05-14T15:42:55.301Z,1.57
2019-05-14T15:45:25.989Z,1.40
2019-05-14T15:48:02.943Z,1.40
2019-05-14T15:51:01.340Z,1.10
2019-05-14T15:53:34.961Z,1.20
2019-05-14T15:56:24.259Z,1.20
2019-05-14T15:59:01.064Z,1.30
2019-05-14T16:01:32.116Z,1.50
2019-05-14T16:04:23.248Z,1.80
2019-05-14T16:06:53.979Z,1.43
2019-05-14T16:13:20.852Z,1.50
2019-05-14T16:16:20.018Z,1.40
2019-05-14T16:19:09.351Z,1.67
2019-05-14T16:21:59.034Z,1.70
2019-05-14T16:24:29.519Z,1.30
2019-05-14T16:27:19.756Z,1.40
2019-05-14T16:30:10.411Z,1.20
2019-05-14T16:33:05.183Z,1.00
2019-05-14T16:35:39.234Z,1.50
2019-05-14T16:38:48.325Z,1.07
2019-05-14T16:41:38.918Z,1.27
2019-05-14T16:44:30.831Z,1.10
2019-05-14T16:47:20.142Z,1.20
2019-05-14T16:49:51.678Z,1.30
2019-05-14T16:52:23.682Z,1.10
2019-05-14T16:55:14.996Z,1.20
2019-05-14T16:57:29.353Z,2.47
2019-05-14T17:00:34.668Z,2.03
2019-05-14T17:03:00.235Z,0.97
2019-05-14T17:05:51.954Z,1.43
2019-05-14T17:08:49.797Z,1.47
2019-05-14T17:11:25.284Z,1.20
2019-05-14T17:13:58.029Z,1.00
2019-05-14T17:16:30.182Z,1.20
2019-05-14T17:19:20.075Z,1.23
2019-05-14T17:22:24.003Z,1.30
2019-05-14T17:24:43.289Z,1.30
2019-05-14T17:27:19.668Z,1.50
2019-05-14T17:30:09.289Z,1.17
2019-05-14T17:32:39.721Z,1.10
2019-05-14T17:35:11.624Z,1.40
2019-05-14T17:37:41.994Z,1.17
2019-05-14T17:40:12.340Z,1.40
2019-05-14T17:43:02.143Z,1.10
2019-05-14T17:45:58.757Z,1.43
2019-05-14T17:48:39.131Z,1.00
2019-05-14T17:51:31.449Z,1.23
2019-05-14T17:54:23.045Z,1.40
2019-05-14T17:57:15.287Z,1.10
2019-05-14T17:59:49.763Z,1.33
2019-05-14T18:02:23.222Z,1.17
2019-05-14T18:04:59.284Z,1.20
2019-05-14T18:07:30.469Z,1.27
2019-05-14T18:10:23.073Z,1.10
2019-05-14T18:13:12.614Z,1.13
2019-05-14T18:16:09.007Z,1.00
2019-05-14T18:19:18.176Z,1.10
2019-05-14T18:21:51.973Z,0.90
2019-05-14T18:24:59.174Z,1.03
2019-05-14T18:30:41.728Z,1.00
2019-05-14T18:33:12.349Z,1.03
2019-05-14T18:36:04.017Z,1.03
2019-05-14T18:38:53.307Z,1.20
2019-05-14T18:41:42.944Z,1.00
2019-05-14T18:44:32.320Z,2.30
2019-05-14T18:47:41.174Z,1.20
2019-05-14T18:50:44.616Z,1.10
2019-05-14T18:53:21.893Z,1.10
2019-05-14T18:56:20.308Z,1.00
2019-05-14T18:58:45.596Z,1.23
2019-05-14T19:01:35.111Z,1.30
2019-05-14T19:04:08.099Z,1.20
2019-05-14T19:09:18.430Z,1.30
2019-05-14T19:11:48.368Z,1.43
2019-05-14T19:14:19.186Z,1.17
2019-05-14T19:16:52.986Z,1.60
2019-05-14T19:19:42.607Z,1.53
2019-05-14T19:22:32.104Z,1.43
2019-05-14T19:25:21.985Z,1.20
2019-05-14T19:27:52.379Z,4.60
2019-05-14T19:30:45.131Z,1.10
2019-05-14T19:33:20.625Z,1.50
2019-05-14T19:35:54.374Z,1.40
2019-05-14T19:38:25.216Z,1.67
2019-05-14T19:40:57.298Z,1.60
2019-05-14T19:44:08.820Z,1.40
2019-05-14T19:47:02.854Z,1.60
2019-05-14T19:49:52.419Z,1.60
2019-05-14T19:52:22.861Z,1.37
2019-05-14T19:55:13.889Z,1.63
2019-05-14T19:58:03.464Z,1.40
2019-05-14T20:00:38.234Z,1.33
2019-05-14T20:06:21.478Z,1.47
2019-05-14T20:09:25.085Z,1.33
2019-05-14T20:14:39.005Z,1.40
2019-05-14T20:17:29.786Z,1.60
2019-05-14T20:20:00.539Z,1.60
2019-05-14T20:22:59.138Z,1.70
2019-05-14T20:25:41.650Z,1.60
2019-05-14T20:28:15.040Z,1.57
2019-05-14T20:31:04.390Z,1.70
2019-05-14T20:33:53.908Z,1.40
2019-05-14T20:36:48.221Z,1.50
2019-05-14T20:39:40.094Z,1.60
2019-05-14T20:42:14.792Z,2.20
2019-05-14T20:44:56.605Z,1.50
2019-05-14T20:47:39.002Z,1.37
2019-05-14T20:50:30.451Z,1.43
2019-05-14T20:53:00.854Z,1.40
2019-05-14T20:55:31.540Z,1.60
2019-05-14T20:58:20.995Z,1.60
2019-05-14T21:01:11.420Z,1.67
2019-05-14T21:04:02.101Z,1.30
2019-05-14T21:06:53.290Z,1.80
2019-05-14T21:10:03.196Z,1.20
2019-05-14T21:12:53.155Z,2.20
2019-05-14T21:15:48.170Z,1.50
2019-05-14T21:18:33.264Z,1.60
2019-05-14T21:21:11.764Z,1.30
2019-05-14T21:23:42.242Z,1.40
2019-05-14T21:26:19.417Z,1.30
2019-05-14T21:29:09.187Z,1.43
2019-05-14T21:31:39.700Z,1.30
2019-05-14T21:34:32.099Z,1.27
2019-05-14T21:37:04.390Z,1.20
2019-05-14T21:39:40.958Z,1.27
2019-05-14T21:42:28.629Z,1.20
2019-05-14T21:46:10.247Z,1.50
2019-05-14T21:48:45.019Z,1.50
2019-05-14T21:51:03.204Z,1.57
2019-05-14T21:53:38.701Z,1.63
2019-05-14T21:56:40.097Z,1.20
2019-05-14T21:59:29.795Z,1.50
2019-05-14T22:02:27.035Z,1.33
2019-05-14T22:05:11.090Z,1.60
2019-05-14T22:07:41.604Z,1.70
2019-05-14T22:10:39.851Z,1.37
2019-05-14T22:13:31.484Z,1.40
2019-05-14T22:16:05.026Z,1.20
2019-05-14T22:18:55.484Z,1.37
2019-05-14T22:21:28.910Z,1.33
2019-05-14T22:24:07.906Z,1.27
2019-05-14T22:26:38.945Z,1.60
2019-05-14T22:29:29.828Z,1.30
2019-05-14T22:32:11.333Z,1.40
2019-05-14T22:34:53.019Z,1.40
2019-05-14T22:37:23.845Z,1.40
2019-05-14T22:39:54.400Z,1.60
2019-05-14T22:42:44.124Z,1.80
2019-05-14T22:45:33.580Z,1.60
2019-05-14T22:48:04.070Z,1.57
2019-05-14T22:50:41.020Z,1.20
2019-05-14T22:53:09.427Z,1.50
2019-05-14T22:55:41.085Z,1.53
2019-05-14T22:58:50.065Z,1.70
2019-05-14T23:01:20.419Z,1.40
2019-05-14T23:03:50.803Z,1.37
2019-05-14T23:06:21.373Z,1.53
2019-05-14T23:08:53.691Z,1.53
2019-05-14T23:11:24.462Z,1.50
2019-05-14T23:14:13.758Z,1.40
2019-05-14T23:16:44.008Z,1.47
2019-05-14T23:19:35.836Z,1.53
2019-05-14T23:22:25.072Z,1.60
2019-05-14T23:25:14.653Z,1.30
2019-05-14T23:28:22.761Z,1.53
2019-05-14T23:30:56.154Z,1.70
2019-05-14T23:33:28.714Z,1.53
2019-05-14T23:35:58.694Z,1.43
2019-05-14T23:41:30.173Z,1.60
2019-05-14T23:44:00.778Z,1.80
2019-05-14T23:46:31.049Z,1.90
2019-05-14T23:51:51.950Z,1.57
2019-05-14T23:54:22.208Z,1.57
2019-05-14T23:57:11.533Z,1.73
2019-05-14T23:59:41.836Z,1.70
